createdAt,value
2023-01-29T00:02:22.776Z,102900.06
2023-01-29T00:04:51.248Z,102870.44
2023-01-29T00:07:18.759Z,102848.28
2023-01-29T00:09:45.549Z,102994.38
2023-01-29T00:12:31.509Z,102986.13
2023-01-29T00:14:59.669Z,102991.34
2023-01-29T00:17:26.467Z,102988.66
2023-01-29T00:19:53.316Z,102984.59
2023-01-29T00:22:20.674Z,102990.78
2023-01-29T00:24:47.989Z,102905.75
2023-01-29T00:27:14.998Z,102972.56
2023-01-29T00:29:43.242Z,102946.97
2023-01-29T00:32:10.034Z,102933.44
2023-01-29T00:34:36.884Z,102914.06
2023-01-29T00:37:03.734Z,102925.53
2023-01-29T00:39:45.983Z,102904.72
2023-01-29T00:42:14.197Z,102970.63
2023-01-29T00:44:41.098Z,102910.75
2023-01-29T00:47:09.771Z,102964.94
2023-01-29T00:49:36.613Z,102967.59
2023-01-29T00:52:03.722Z,102871.44
2023-01-29T00:54:32.939Z,102963.72
2023-01-29T00:57:00.150Z,102962.88
2023-01-29T00:59:26.999Z,102952.97
2023-01-29T01:01:54.067Z,102747.09
2023-01-29T01:04:22.759Z,102930.84
2023-01-29T01:06:49.732Z,102953.16
2023-01-29T01:09:16.650Z,102944.09
2023-01-29T01:11:44.011Z,102789.75
2023-01-29T01:14:10.920Z,102780.00
2023-01-29T01:16:37.923Z,102825.44
2023-01-29T01:19:05.647Z,102955.22
2023-01-29T01:21:34.150Z,102757.63
2023-01-29T01:24:01.027Z,102870.88
2023-01-29T01:26:28.023Z,102957.44
2023-01-29T01:28:54.806Z,102875.41
2023-01-29T01:31:21.917Z,102958.91
2023-01-29T01:33:48.879Z,102954.53
2023-01-29T01:36:15.803Z,102892.78
2023-01-29T01:38:44.633Z,102760.03
2023-01-29T01:41:17.802Z,102935.66
2023-01-29T01:43:49.930Z,102935.41
2023-01-29T01:46:16.950Z,102933.72
2023-01-29T01:48:46.360Z,102882.16
2023-01-29T01:51:15.074Z,102765.38
2023-01-29T01:53:50.299Z,102882.31
2023-01-29T01:56:22.814Z,102911.97
2023-01-29T01:58:54.758Z,102963.59
2023-01-29T02:01:25.729Z,102783.31
2023-01-29T02:03:56.856Z,102892.53
2023-01-29T02:06:24.078Z,102739.31
2023-01-29T02:08:56.812Z,102989.59
2023-01-29T02:11:24.662Z,102954.09
2023-01-29T02:13:52.633Z,102752.75
2023-01-29T02:16:23.971Z,102919.34
2023-01-29T02:18:51.038Z,102967.03
2023-01-29T02:21:36.606Z,102760.91
2023-01-29T02:24:32.857Z,102963.59
2023-01-29T02:27:08.179Z,102960.75
2023-01-29T02:29:45.684Z,102841.97
2023-01-29T02:32:21.146Z,102938.53
2023-01-29T02:35:00.547Z,102940.78
2023-01-29T02:37:36.510Z,102922.28
2023-01-29T02:40:12.713Z,102802.50
2023-01-29T02:42:47.689Z,102851.75
2023-01-29T02:45:22.623Z,102764.88
2023-01-29T02:47:56.212Z,102696.44
2023-01-29T02:50:28.361Z,102813.16
2023-01-29T02:53:02.069Z,102873.44
2023-01-29T02:55:34.706Z,102725.03
2023-01-29T02:58:11.370Z,102920.53
2023-01-29T03:00:42.944Z,102717.66
2023-01-29T03:03:16.046Z,102872.22
2023-01-29T03:05:50.479Z,102786.41
2023-01-29T03:08:23.639Z,102760.69
2023-01-29T03:10:56.096Z,102781.34
2023-01-29T03:13:30.940Z,102809.88
2023-01-29T03:16:05.708Z,102782.53
2023-01-29T03:18:37.225Z,102852.47
2023-01-29T03:21:11.188Z,102718.72
2023-01-29T03:23:38.632Z,102761.84
2023-01-29T03:26:07.705Z,102847.81
2023-01-29T03:28:34.844Z,102806.59
2023-01-29T03:31:10.071Z,102850.50
2023-01-29T03:33:43.991Z,102724.31
2023-01-29T03:36:16.877Z,102777.09
2023-01-29T03:38:44.994Z,102761.47
2023-01-29T03:41:23.316Z,102796.88
2023-01-29T03:43:56.867Z,102838.78
2023-01-29T03:46:30.994Z,102722.25
2023-01-29T03:49:02.569Z,102771.81
2023-01-29T03:51:35.081Z,102658.31
2023-01-29T03:54:09.946Z,102659.34
2023-01-29T03:56:51.362Z,102845.03
2023-01-29T03:59:23.082Z,102840.53
2023-01-29T04:01:57.041Z,102755.72
2023-01-29T04:04:28.199Z,102750.75
2023-01-29T04:06:58.284Z,102836.09
2023-01-29T04:09:31.108Z,102836.81
2023-01-29T04:12:02.701Z,102861.69
2023-01-29T04:14:31.483Z,102762.03
2023-01-29T04:17:03.603Z,102839.63
2023-01-29T04:19:30.668Z,102638.56
2023-01-29T04:22:06.082Z,102832.41
2023-01-29T04:24:34.633Z,102637.84
2023-01-29T04:27:18.528Z,102820.47
2023-01-29T04:29:57.013Z,102706.66
2023-01-29T04:32:32.285Z,102812.53
2023-01-29T04:35:17.430Z,102673.44
2023-01-29T04:37:54.409Z,102816.31
2023-01-29T04:40:26.083Z,102713.13
2023-01-29T04:43:04.690Z,102739.47
2023-01-29T04:45:43.489Z,102697.06
2023-01-29T04:48:21.181Z,102858.56
2023-01-29T04:50:58.388Z,102775.59
2023-01-29T04:53:36.246Z,102845.72
2023-01-29T04:56:13.559Z,102703.78
2023-01-29T04:58:47.478Z,102716.03
2023-01-29T05:01:19.412Z,102630.72
2023-01-29T05:03:52.287Z,102639.13
2023-01-29T05:06:20.555Z,102616.22
2023-01-29T05:08:49.353Z,102778.13
2023-01-29T05:11:18.985Z,102766.28
2023-01-29T05:13:48.827Z,102745.13
2023-01-29T05:16:28.179Z,102724.91
2023-01-29T05:18:57.061Z,102805.94
2023-01-29T05:21:24.959Z,102801.22
2023-01-29T05:24:07.410Z,102784.22
2023-01-29T05:26:35.286Z,102702.06
2023-01-29T05:29:02.163Z,102657.00
2023-01-29T05:31:29.166Z,102715.19
2023-01-29T05:33:57.942Z,102691.63
2023-01-29T05:36:25.184Z,102641.75
2023-01-29T05:38:51.998Z,102777.19
2023-01-29T05:41:19.921Z,102636.56
2023-01-29T05:43:46.780Z,102661.41
2023-01-29T05:46:13.948Z,102775.81
2023-01-29T05:48:40.912Z,102592.34
2023-01-29T05:51:09.213Z,102610.53
2023-01-29T05:53:36.258Z,102584.22
2023-01-29T05:56:04.027Z,102639.63
2023-01-29T05:58:31.521Z,102631.88
2023-01-29T06:00:58.449Z,102614.41
2023-01-29T06:03:25.363Z,102687.72
2023-01-29T06:05:52.352Z,102633.72
2023-01-29T06:08:22.765Z,102735.22
2023-01-29T06:10:49.629Z,102731.06
2023-01-29T06:13:16.539Z,102532.53
2023-01-29T06:15:52.887Z,102744.38
2023-01-29T06:18:20.603Z,102714.25
2023-01-29T06:20:49.669Z,102748.34
2023-01-29T06:23:16.634Z,102639.81
2023-01-29T06:25:45.138Z,102743.81
2023-01-29T06:28:11.963Z,102611.56
2023-01-29T06:30:38.878Z,102635.56
2023-01-29T06:33:06.290Z,102688.41
2023-01-29T06:35:33.201Z,102702.63
2023-01-29T06:38:00.147Z,102742.72
2023-01-29T06:40:27.239Z,102589.75
2023-01-29T06:42:55.583Z,102599.34
2023-01-29T06:45:23.072Z,102667.81
2023-01-29T06:47:49.848Z,102633.34
2023-01-29T06:50:18.049Z,102700.31
2023-01-29T06:52:45.220Z,102737.63
2023-01-29T06:55:12.666Z,102737.06
2023-01-29T06:57:40.037Z,102714.63
2023-01-29T07:00:11.127Z,102699.28
2023-01-29T07:02:38.044Z,102520.78
2023-01-29T07:05:05.867Z,102618.28
2023-01-29T07:07:35.315Z,102636.84
2023-01-29T07:10:02.477Z,102597.69
2023-01-29T07:12:29.427Z,102553.56
2023-01-29T07:14:56.329Z,102631.78
2023-01-29T07:17:24.677Z,102646.00
2023-01-29T07:19:51.844Z,102704.47
2023-01-29T07:22:18.747Z,102694.66
2023-01-29T07:24:45.498Z,102691.25
2023-01-29T07:27:12.390Z,102712.41
2023-01-29T07:29:40.588Z,102594.47
2023-01-29T07:32:14.530Z,102680.19
2023-01-29T07:34:43.458Z,102696.81
2023-01-29T07:37:13.227Z,102702.53
2023-01-29T07:39:40.045Z,102535.94
2023-01-29T07:42:07.768Z,102698.16
2023-01-29T07:44:34.589Z,102634.34
2023-01-29T07:47:01.661Z,102693.47
2023-01-29T07:49:28.561Z,102679.06
2023-01-29T07:51:58.352Z,102515.09
2023-01-29T07:54:25.265Z,102661.59
2023-01-29T07:56:52.491Z,102557.66
2023-01-29T07:59:19.455Z,102498.38
2023-01-29T08:01:46.285Z,102501.44
2023-01-29T08:04:46.272Z,102681.19
2023-01-29T08:07:14.736Z,102688.28
2023-01-29T08:09:44.549Z,102698.28
2023-01-29T08:12:12.347Z,102558.19
2023-01-29T08:14:42.065Z,102650.97
2023-01-29T08:17:10.793Z,102652.63
2023-01-29T08:19:38.041Z,102672.88
2023-01-29T08:22:05.431Z,102631.59
2023-01-29T08:24:47.738Z,102622.06
2023-01-29T08:27:22.808Z,102478.19
2023-01-29T08:29:49.657Z,102642.19
2023-01-29T08:32:16.531Z,102661.47
2023-01-29T08:34:43.210Z,102529.59
2023-01-29T08:37:10.201Z,102640.25
2023-01-29T08:39:38.650Z,102652.25
2023-01-29T08:42:05.500Z,102614.50
2023-01-29T08:44:32.692Z,102558.63
2023-01-29T08:46:59.688Z,102645.31
2023-01-29T08:49:28.224Z,102646.22
2023-01-29T08:51:55.250Z,102642.69
2023-01-29T08:54:22.230Z,102575.63
2023-01-29T08:56:51.851Z,102617.84
2023-01-29T08:59:18.828Z,102619.06
2023-01-29T09:01:45.611Z,102637.31
2023-01-29T09:04:12.328Z,102630.97
2023-01-29T09:06:40.405Z,102634.56
2023-01-29T09:09:07.170Z,102636.41
2023-01-29T09:11:33.877Z,102627.75
2023-01-29T09:14:02.503Z,102633.47
2023-01-29T09:16:30.044Z,102529.72
2023-01-29T09:18:56.898Z,102586.19
2023-01-29T09:21:25.687Z,102576.16
2023-01-29T09:23:52.541Z,102448.81
2023-01-29T09:26:19.514Z,102628.63
2023-01-29T09:28:48.839Z,102630.81
2023-01-29T09:31:17.577Z,102611.19
2023-01-29T09:33:44.426Z,102625.72
2023-01-29T09:36:13.770Z,102607.09
2023-01-29T09:38:40.611Z,102532.63
2023-01-29T09:41:24.155Z,102494.06
2023-01-29T09:43:58.091Z,102507.72
2023-01-29T09:46:33.812Z,102538.44
2023-01-29T09:49:06.253Z,102569.34
2023-01-29T09:51:38.514Z,102425.22
2023-01-29T09:54:17.338Z,102551.53
2023-01-29T09:56:46.142Z,102492.53
2023-01-29T09:59:17.190Z,102600.53
2023-01-29T10:01:55.563Z,102501.22
2023-01-29T10:04:50.567Z,102564.16
2023-01-29T10:07:32.921Z,102588.44
2023-01-29T10:10:16.215Z,102609.63
2023-01-29T10:12:57.370Z,102481.81
2023-01-29T10:15:38.332Z,102609.94
2023-01-29T10:18:33.974Z,102607.78
2023-01-29T10:21:11.540Z,102546.47
2023-01-29T10:23:42.923Z,102610.03
2023-01-29T10:26:11.611Z,102602.13
2023-01-29T10:28:42.950Z,102574.00
2023-01-29T10:31:13.193Z,102589.41
2023-01-29T10:33:49.140Z,102576.25
2023-01-29T10:36:34.772Z,102581.44
2023-01-29T10:39:02.942Z,102578.13
2023-01-29T10:41:56.370Z,102571.16
2023-01-29T10:44:37.859Z,102568.28
2023-01-29T10:47:31.926Z,102559.59
2023-01-29T10:50:16.349Z,102520.03
2023-01-29T10:53:04.685Z,102353.00
2023-01-29T10:55:47.153Z,102564.88
2023-01-29T10:58:26.843Z,102418.81
2023-01-29T11:00:53.788Z,102517.84
2023-01-29T11:03:28.418Z,102528.25
2023-01-29T11:06:08.511Z,102522.13
2023-01-29T11:08:43.612Z,102524.19
2023-01-29T11:11:14.291Z,102504.34
2023-01-29T11:13:46.675Z,102319.09
2023-01-29T11:16:14.501Z,102328.25
2023-01-29T11:18:56.485Z,102398.72
2023-01-29T11:21:26.969Z,102506.72
2023-01-29T11:24:15.107Z,102517.00
2023-01-29T11:26:45.886Z,102395.44
2023-01-29T11:29:42.518Z,102301.44
2023-01-29T11:32:14.097Z,102379.72
2023-01-29T11:34:57.759Z,102490.44
2023-01-29T11:37:32.871Z,102486.78
2023-01-29T11:39:59.821Z,102469.28
2023-01-29T11:42:31.284Z,102450.91
2023-01-29T11:44:58.110Z,102400.31
2023-01-29T11:47:27.865Z,102348.53
2023-01-29T11:49:56.275Z,102426.03
2023-01-29T11:52:34.236Z,102446.25
2023-01-29T11:55:05.429Z,102455.19
2023-01-29T11:57:35.259Z,102361.00
2023-01-29T12:00:05.185Z,102451.25
2023-01-29T12:02:37.412Z,102406.81
2023-01-29T12:05:15.652Z,102419.59
2023-01-29T12:07:46.290Z,102394.75
2023-01-29T12:10:30.710Z,102428.72
2023-01-29T12:13:05.551Z,102421.25
2023-01-29T12:15:32.311Z,102245.16
2023-01-29T12:18:07.578Z,102386.97
2023-01-29T12:20:39.439Z,102258.63
2023-01-29T12:23:41.956Z,102401.25
2023-01-29T12:26:12.948Z,102382.22
2023-01-29T12:28:49.585Z,102318.75
2023-01-29T12:31:27.050Z,102369.66
2023-01-29T12:34:02.093Z,102253.13
2023-01-29T12:36:38.456Z,102234.78
2023-01-29T12:39:09.703Z,102233.94
2023-01-29T12:41:46.551Z,102356.63
2023-01-29T12:44:18.516Z,102216.00
2023-01-29T12:46:49.425Z,102304.56
2023-01-29T12:49:23.128Z,102306.63
2023-01-29T12:52:00.442Z,102315.09
2023-01-29T12:54:35.591Z,102327.91
2023-01-29T12:57:11.436Z,102314.69
2023-01-29T12:59:43.293Z,102101.28
2023-01-29T13:02:23.618Z,102294.19
2023-01-29T13:04:58.091Z,102285.91
2023-01-29T13:07:32.908Z,102297.91
2023-01-29T13:10:07.830Z,102246.56
2023-01-29T13:12:36.199Z,102185.13
2023-01-29T13:15:12.871Z,102290.59
2023-01-29T13:17:45.210Z,102282.91
2023-01-29T13:20:19.734Z,102266.97
2023-01-29T13:22:49.504Z,102281.44
2023-01-29T13:25:20.226Z,102270.75
2023-01-29T13:27:48.902Z,102272.00
2023-01-29T13:30:29.694Z,102182.69
2023-01-29T13:32:59.310Z,102142.34
2023-01-29T13:35:26.027Z,102244.13
2023-01-29T13:37:54.977Z,102217.22
2023-01-29T13:40:25.713Z,102185.53
2023-01-29T13:42:54.872Z,102234.16
2023-01-29T13:45:46.307Z,102108.03
2023-01-29T13:48:26.585Z,102243.66
2023-01-29T13:50:55.526Z,102176.03
2023-01-29T13:53:28.022Z,102197.41
2023-01-29T13:56:29.809Z,102225.72
2023-01-29T13:58:58.221Z,102202.53
2023-01-29T14:02:01.593Z,102214.16
2023-01-29T14:04:30.157Z,102211.69
2023-01-29T14:07:00.308Z,102135.59
2023-01-29T14:10:01.061Z,102213.56
2023-01-29T14:13:17.227Z,102192.91
2023-01-29T14:15:45.035Z,102174.47
2023-01-29T14:18:18.182Z,102207.16
2023-01-29T14:21:02.381Z,102184.41
2023-01-29T14:23:41.323Z,102038.53
2023-01-29T14:26:24.381Z,102183.38
2023-01-29T14:29:00.005Z,102183.56
2023-01-29T14:31:32.283Z,102191.25
2023-01-29T14:34:05.998Z,102180.31
2023-01-29T14:36:40.287Z,102184.88
2023-01-29T14:39:19.150Z,102177.84
2023-01-29T14:41:46.098Z,102172.66
2023-01-29T14:44:56.751Z,102167.75
2023-01-29T14:48:03.167Z,102164.19
2023-01-29T14:50:51.111Z,102160.50
2023-01-29T14:53:30.288Z,102083.44
2023-01-29T14:56:02.376Z,102161.28
2023-01-29T14:58:39.086Z,102038.63
2023-01-29T15:01:25.952Z,102071.88
2023-01-29T15:03:58.752Z,101943.19
2023-01-29T15:06:32.186Z,102150.19
2023-01-29T15:09:05.557Z,101981.03
2023-01-29T15:11:40.651Z,101946.97
2023-01-29T15:14:18.857Z,102127.81
2023-01-29T15:16:59.365Z,101987.00
2023-01-29T15:19:31.920Z,102122.06
2023-01-29T15:22:10.693Z,102152.44
2023-01-29T15:24:38.981Z,102151.00
2023-01-29T15:27:11.409Z,102157.63
2023-01-29T15:29:39.552Z,102143.81
2023-01-29T15:32:16.269Z,102024.81
2023-01-29T15:34:43.918Z,102013.53
2023-01-29T15:37:48.905Z,102139.47
2023-01-29T15:40:20.127Z,102120.06
2023-01-29T15:42:49.308Z,102076.28
2023-01-29T15:45:33.507Z,102110.38
2023-01-29T15:48:37.629Z,102053.19
2023-01-29T15:51:08.747Z,101983.84
2023-01-29T15:53:45.852Z,101989.03
2023-01-29T15:56:16.404Z,101988.00
2023-01-29T15:58:46.839Z,101938.03
2023-01-29T16:01:14.163Z,102100.31
2023-01-29T16:03:43.484Z,101992.13
2023-01-29T16:06:11.861Z,102037.13
2023-01-29T16:08:40.245Z,101967.75
2023-01-29T16:11:08.770Z,102091.19
2023-01-29T16:13:39.361Z,102031.97
2023-01-29T16:16:19.861Z,102018.56
2023-01-29T16:18:59.503Z,102073.47
2023-01-29T16:21:30.715Z,102072.03
2023-01-29T16:24:04.275Z,102057.34
2023-01-29T16:26:35.261Z,102078.41
2023-01-29T16:29:06.360Z,102081.31
2023-01-29T16:31:35.660Z,102090.38
2023-01-29T16:34:09.888Z,102090.38
2023-01-29T16:36:46.697Z,101985.94
2023-01-29T16:39:19.810Z,101897.63
2023-01-29T16:42:19.264Z,101838.28
2023-01-29T16:44:47.634Z,101956.03
2023-01-29T16:47:20.599Z,101963.69
2023-01-29T16:49:52.251Z,101981.00
2023-01-29T16:52:23.622Z,102034.25
2023-01-29T16:54:58.282Z,102028.88
2023-01-29T16:57:31.915Z,102029.06
2023-01-29T17:00:04.444Z,101953.78
2023-01-29T17:02:39.647Z,101909.66
2023-01-29T17:05:18.158Z,102019.19
2023-01-29T17:07:46.892Z,101823.88
2023-01-29T17:10:20.011Z,101937.28
2023-01-29T17:12:53.493Z,102041.69
2023-01-29T17:15:33.066Z,102017.34
2023-01-29T17:18:03.150Z,101832.13
2023-01-29T17:20:34.322Z,101945.75
2023-01-29T17:23:03.293Z,101901.22
2023-01-29T17:25:30.307Z,101919.59
2023-01-29T17:28:11.358Z,101909.25
2023-01-29T17:31:05.768Z,101788.66
2023-01-29T17:33:35.108Z,102016.31
2023-01-29T17:36:13.151Z,101911.34
2023-01-29T17:38:40.967Z,101962.66
2023-01-29T17:41:12.061Z,101992.38
2023-01-29T17:43:38.895Z,101811.56
2023-01-29T17:46:05.974Z,101856.47
2023-01-29T17:48:32.922Z,101974.81
2023-01-29T17:51:03.664Z,101962.03
2023-01-29T17:53:47.347Z,101963.28
2023-01-29T17:56:16.552Z,101959.56
2023-01-29T17:58:43.612Z,101760.03
2023-01-29T18:01:10.523Z,101858.13
2023-01-29T18:03:38.152Z,101933.56
2023-01-29T18:06:10.389Z,101919.97
2023-01-29T18:08:40.901Z,101910.50
2023-01-29T18:11:12.400Z,101853.81
2023-01-29T18:13:39.192Z,101901.63
2023-01-29T18:16:06.692Z,101835.88
2023-01-29T18:18:33.517Z,101757.81
2023-01-29T18:21:00.508Z,101731.84
2023-01-29T18:23:27.539Z,101739.47
2023-01-29T18:25:59.636Z,101880.63
2023-01-29T18:28:26.581Z,101801.28
2023-01-29T18:30:53.813Z,101729.59
2023-01-29T18:33:21.551Z,101775.09
2023-01-29T18:35:48.923Z,101845.16
2023-01-29T18:38:17.102Z,101787.66
2023-01-29T18:40:46.285Z,101904.91
2023-01-29T18:43:17.069Z,101912.97
2023-01-29T18:45:44.482Z,101921.22
2023-01-29T18:48:11.652Z,101857.31
2023-01-29T18:50:38.403Z,101862.03
2023-01-29T18:53:09.590Z,101875.44
2023-01-29T18:55:54.038Z,101817.34
2023-01-29T18:58:25.501Z,101730.41
2023-01-29T19:00:55.290Z,101842.25
2023-01-29T19:03:22.578Z,101671.09
2023-01-29T19:05:50.277Z,101852.34
2023-01-29T19:08:17.360Z,101844.47
2023-01-29T19:10:44.231Z,101834.56
2023-01-29T19:13:11.238Z,101815.59
2023-01-29T19:15:43.644Z,101661.22
2023-01-29T19:18:12.069Z,101787.41
2023-01-29T19:20:41.137Z,101810.25
2023-01-29T19:23:11.434Z,101858.28
2023-01-29T19:25:40.508Z,101681.19
2023-01-29T19:28:07.613Z,101882.63
2023-01-29T19:30:38.000Z,101856.81
2023-01-29T19:33:14.692Z,101839.09
2023-01-29T19:35:45.966Z,101644.56
2023-01-29T19:38:12.759Z,101837.03
2023-01-29T19:40:39.583Z,101700.28
2023-01-29T19:43:06.626Z,101705.66
2023-01-29T19:45:49.976Z,101616.75
2023-01-29T19:48:19.421Z,101679.50
2023-01-29T19:50:52.269Z,101607.69
2023-01-29T19:53:21.941Z,101766.91
2023-01-29T19:55:56.409Z,101804.78
2023-01-29T19:58:23.516Z,101728.25
2023-01-29T20:00:54.768Z,101742.44
2023-01-29T20:03:24.053Z,101746.13
2023-01-29T20:05:51.029Z,101694.69
2023-01-29T20:08:19.929Z,101765.47
2023-01-29T20:10:47.788Z,101778.00
2023-01-29T20:13:15.506Z,101802.50
2023-01-29T20:15:44.372Z,101822.34
2023-01-29T20:18:12.377Z,101773.94
2023-01-29T20:20:41.624Z,101716.28
2023-01-29T20:23:09.289Z,101795.91
2023-01-29T20:25:36.609Z,101721.22
2023-01-29T20:28:04.398Z,101691.22
2023-01-29T20:30:32.134Z,101746.31
2023-01-29T20:32:59.295Z,101680.91
2023-01-29T20:35:27.109Z,101800.06
2023-01-29T20:37:55.561Z,101760.78
2023-01-29T20:40:22.745Z,101791.63
2023-01-29T20:42:49.833Z,101727.41
2023-01-29T20:45:17.728Z,101675.16
2023-01-29T20:47:45.473Z,101753.38
2023-01-29T20:50:14.839Z,101719.38
2023-01-29T20:52:42.524Z,101615.47
2023-01-29T20:55:15.415Z,101697.16
2023-01-29T20:57:42.823Z,101794.94
2023-01-29T21:00:12.035Z,101761.50
2023-01-29T21:02:39.486Z,101742.41
2023-01-29T21:05:07.128Z,101767.88
2023-01-29T21:07:34.123Z,101781.31
2023-01-29T21:10:02.278Z,101786.47
2023-01-29T21:12:30.722Z,101782.94
2023-01-29T21:14:57.478Z,101634.78
2023-01-29T21:17:26.686Z,101708.97
2023-01-29T21:19:54.687Z,101630.38
2023-01-29T21:22:21.751Z,101673.72
2023-01-29T21:24:48.656Z,101697.75
2023-01-29T21:27:15.704Z,101641.91
2023-01-29T21:29:44.034Z,101669.50
2023-01-29T21:32:10.962Z,101590.56
2023-01-29T21:34:37.809Z,101581.56
2023-01-29T21:37:04.557Z,101627.34
2023-01-29T21:39:32.925Z,101456.50
2023-01-29T21:42:00.039Z,101639.09
2023-01-29T21:44:27.459Z,101623.22
2023-01-29T21:46:56.284Z,101512.50
2023-01-29T21:49:23.777Z,101576.66
2023-01-29T21:51:51.291Z,101538.34
2023-01-29T21:54:18.386Z,101478.63
2023-01-29T21:56:45.186Z,101619.50
2023-01-29T21:59:11.962Z,101619.47
2023-01-29T22:01:38.984Z,101585.94
2023-01-29T22:04:07.706Z,101626.44
2023-01-29T22:06:34.474Z,101577.72
2023-01-29T22:09:01.508Z,101627.66
2023-01-29T22:11:28.542Z,101628.69
2023-01-29T22:13:55.330Z,101624.38
2023-01-29T22:16:24.235Z,101608.28
2023-01-29T22:18:51.002Z,101592.50
2023-01-29T22:21:19.890Z,101552.78
2023-01-29T22:23:48.489Z,101402.81
2023-01-29T22:26:15.860Z,101402.44
2023-01-29T22:28:42.937Z,101500.19
2023-01-29T22:31:10.480Z,101496.16
2023-01-29T22:33:37.425Z,101528.69
2023-01-29T22:36:05.185Z,101528.84
2023-01-29T22:38:33.359Z,101487.19
2023-01-29T22:41:02.560Z,101560.50
2023-01-29T22:43:30.447Z,101475.09
2023-01-29T22:45:57.327Z,101584.59
2023-01-29T22:48:24.722Z,101500.66
2023-01-29T22:50:56.420Z,101551.66
2023-01-29T22:53:23.688Z,101587.34
2023-01-29T22:55:55.513Z,101586.09
2023-01-29T22:58:22.916Z,101591.69
2023-01-29T23:00:52.548Z,101397.84
2023-01-29T23:03:20.111Z,101511.25
2023-01-29T23:05:46.853Z,101570.88
2023-01-29T23:08:13.953Z,101564.47
2023-01-29T23:10:42.904Z,101407.59
2023-01-29T23:13:12.701Z,101561.50
2023-01-29T23:15:39.774Z,101561.25
2023-01-29T23:18:06.682Z,101519.03
2023-01-29T23:20:33.673Z,101541.34
2023-01-29T23:23:00.783Z,101536.78
2023-01-29T23:25:27.512Z,101531.41
2023-01-29T23:27:54.298Z,101428.06
2023-01-29T23:30:22.545Z,101441.84
2023-01-29T23:32:49.741Z,101526.34
2023-01-29T23:35:16.759Z,101377.28
2023-01-29T23:37:43.675Z,101529.06
2023-01-29T23:40:11.903Z,101428.13
2023-01-29T23:42:47.711Z,101508.59
2023-01-29T23:45:14.907Z,101511.19
2023-01-29T23:47:43.158Z,101466.13
2023-01-29T23:50:11.458Z,101445.72
2023-01-29T23:52:40.326Z,101452.69
2023-01-29T23:55:09.717Z,101453.56
2023-01-29T23:57:38.434Z,101458.03
